Time;durP1;ratioP1;P1;durP2;ratioP2;P2;SDS_P1;SDS_P2;PMS_P1;PMS_P2;Temp;Humidity;BMP_temperature;BMP_pressure;BME280_temperature;BME280_humidity;BME280_pressure;Samples;Min_cycle;Max_cycle;Signal;HPM_P1;HPM_P2
2023/04/02 00:01:00;;;;;;;32.78;14.20;;;;;;;6.32;84.86;98642.84;7341327;19;20022;-66
2023/04/02 00:03:52;;;;;;;30.15;15.43;;;;;;;6.30;85.25;98643.91;7340759;19;20021;-64
2023/04/02 00:06:43;;;;;;;36.58;18.65;;;;;;;6.28;85.60;98656.41;7340808;19;20037;-63
2023/04/02 00:09:14;;;;;;;28.98;17.88;;;;;;;6.35;85.28;98642.63;7345685;19;20018;-66
2023/04/02 00:11:45;;;;;;;44.10;22.48;;;;;;;6.22;86.10;98649.72;7341053;19;20022;-65
2023/04/02 00:14:20;;;;;;;32.13;17.60;;;;;;;6.25;86.19;98653.97;7342224;19;20060;-65
2023/04/02 00:16:45;;;;;;;34.42;19.17;;;;;;;6.17;87.06;98647.41;7340340;19;20018;-65
2023/04/02 00:19:22;;;;;;;40.67;20.55;;;;;;;6.16;87.46;98658.94;7340934;19;20018;-67
2023/04/02 00:21:48;;;;;;;36.42;16.60;;;;;;;6.22;87.36;98660.31;7341841;19;20014;-66
2023/04/02 00:24:18;;;;;;;38.58;18.88;;;;;;;6.28;87.26;98653.75;7342994;19;20011;-67
2023/04/02 00:26:49;;;;;;;38.95;19.45;;;;;;;6.32;87.25;98663.19;7343497;19;20469;-68
2023/04/02 00:29:16;;;;;;;39.58;16.77;;;;;;;6.33;87.08;98659.56;7340087;19;20015;-69
2023/04/02 00:31:48;;;;;;;43.38;21.73;;;;;;;6.28;87.32;98667.00;7339611;19;20022;-65
2023/04/02 00:34:20;;;;;;;31.20;17.60;;;;;;;6.34;87.21;98666.56;7339043;19;20022;-68
2023/04/02 00:36:46;;;;;;;36.08;18.83;;;;;;;6.38;87.02;98668.03;7339931;19;20018;-67
2023/04/02 00:39:21;;;;;;;33.28;17.33;;;;;;;6.38;87.17;98668.03;7342926;19;20031;-67
2023/04/02 00:41:47;;;;;;;33.92;17.35;;;;;;;6.31;87.34;98665.00;7352560;19;20007;-67
2023/04/02 00:44:20;;;;;;;31.88;17.50;;;;;;;6.37;86.84;98671.63;7351454;19;20018;-68
2023/04/02 00:46:50;;;;;;;35.85;18.05;;;;;;;6.33;87.22;98675.44;7353444;19;20021;-64
2023/04/02 00:49:34;;;;;;;38.65;19.48;;;;;;;6.37;87.11;98671.63;7343566;19;20041;-68
2023/04/02 00:52:06;;;;;;;18.55;10.73;;;;;;;6.49;86.83;98678.72;7355986;19;20015;-66
2023/04/02 00:54:40;;;;;;;32.85;17.05;;;;;;;6.62;86.08;98671.63;7348970;19;20002;-64
2023/04/02 00:57:19;;;;;;;31.88;16.67;;;;;;;6.36;86.65;98670.78;7344236;19;20023;-64
2023/04/02 00:59:57;;;;;;;30.80;17.45;;;;;;;6.45;86.92;98674.59;7345354;19;20124;-64
2023/04/02 01:02:31;;;;;;;30.95;13.95;;;;;;;6.62;86.16;98676.91;7343210;19;20022;-63
2023/04/02 01:05:22;;;;;;;39.90;19.50;;;;;;;6.47;86.68;98670.88;7339748;19;20006;-64
2023/04/02 01:07:58;;;;;;;19.67;10.63;;;;;;;6.47;87.05;98672.69;7341535;19;20018;-63
2023/04/02 01:10:27;;;;;;;38.22;19.38;;;;;;;6.56;86.64;98675.53;7342679;19;20010;-64
2023/04/02 01:13:05;;;;;;;20.52;11.27;;;;;;;6.70;86.25;98682.50;7342735;19;20085;-64
2023/04/02 01:15:38;;;;;;;36.95;18.20;;;;;;;6.56;86.00;98672.03;7341995;19;20362;-63
2023/04/02 01:18:17;;;;;;;33.30;15.73;;;;;;;6.48;86.63;98669.09;7343020;19;20434;-64
2023/04/02 01:21:20;;;;;;;28.40;15.50;;;;;;;6.56;86.82;98674.69;7339087;19;20085;-64
2023/04/02 01:24:06;;;;;;;37.38;19.42;;;;;;;6.46;87.03;98655.09;7340712;19;20038;-64
2023/04/02 01:26:39;;;;;;;36.75;16.65;;;;;;;6.42;87.49;98667.72;7340370;19;20010;-69
2023/04/02 01:29:19;;;;;;;28.88;14.70;;;;;;;6.49;87.17;98666.34;7341873;19;20412;-71
2023/04/02 01:31:45;;;;;;;31.42;18.48;;;;;;;6.54;87.02;98679.25;7345840;19;20015;-73
2023/04/02 01:34:14;;;;;;;30.52;14.95;;;;;;;6.46;87.18;98676.28;7345921;19;20018;-72
2023/04/02 01:36:51;;;;;;;29.50;14.93;;;;;;;6.54;87.22;98680.13;7345905;19;20027;-71
2023/04/02 01:39:26;;;;;;;36.10;18.95;;;;;;;6.47;87.45;98680.63;7348513;19;20014;-69
2023/04/02 01:42:02;;;;;;;40.50;18.67;;;;;;;6.48;87.08;98667.28;7347243;19;20058;-75
2023/04/02 01:44:39;;;;;;;36.05;17.52;;;;;;;6.49;87.21;98662.84;7349782;19;20373;-75
2023/04/02 01:47:09;;;;;;;30.05;14.68;;;;;;;6.43;87.76;98665.94;7346372;19;20022;-77
2023/04/02 01:49:34;;;;;;;26.73;15.98;;;;;;;6.52;87.35;98659.97;7350049;19;20021;-68
2023/04/02 01:51:59;;;;;;;33.35;15.98;;;;;;;6.59;87.16;98663.88;7349962;19;20010;-70
2023/04/02 01:54:28;;;;;;;37.33;18.02;;;;;;;6.67;86.67;98650.09;7345350;19;20465;-69
2023/04/02 01:56:56;;;;;;;28.63;15.68;;;;;;;6.66;86.56;98657.19;7345448;19;20398;-68
2023/04/02 01:59:23;;;;;;;34.15;16.65;;;;;;;6.69;86.30;98667.56;7345117;19;20653;-68
2023/04/02 02:02:09;;;;;;;32.03;18.17;;;;;;;6.55;86.65;98667.69;7345649;19;20017;-69
2023/04/02 02:04:36;;;;;;;34.65;16.67;;;;;;;6.50;86.99;98673.31;7349117;19;20466;-71
2023/04/02 02:07:04;;;;;;;32.58;17.40;;;;;;;6.45;87.29;98666.66;7345819;19;20098;-71
2023/04/02 02:09:34;;;;;;;26.55;15.63;;;;;;;6.45;87.39;98671.94;7348571;19;20014;-73
2023/04/02 02:12:01;;;;;;;30.58;15.80;;;;;;;6.44;87.64;98665.78;7346674;19;20034;-71
2023/04/02 02:14:28;;;;;;;31.45;14.40;;;;;;;6.51;87.47;98664.44;7345006;19;20477;-76
2023/04/02 02:17:33;;;;;;;30.17;16.58;;;;;;;6.43;87.61;98665.94;7345764;19;20643;-72
2023/04/02 02:20:00;;;;;;;34.25;17.92;;;;;;;6.41;87.79;98668.69;7347519;19;20010;-74
2023/04/02 02:22:38;;;;;;;28.50;14.73;;;;;;;6.57;87.45;98660.50;7346715;19;20010;-73
2023/04/02 02:25:12;;;;;;;31.58;16.17;;;;;;;6.50;87.23;98675.13;7347910;19;20033;-74
2023/04/02 02:27:51;;;;;;;28.02;15.48;;;;;;;6.47;87.45;98670.88;7349620;19;20474;-73
2023/04/02 02:30:26;;;;;;;26.83;15.43;;;;;;;6.47;87.43;98680.63;7344386;19;20019;-72
2023/04/02 02:33:15;;;;;;;28.00;15.32;;;;;;;6.54;87.05;98673.97;7347989;19;20458;-72
2023/04/02 02:35:51;;;;;;;27.60;14.45;;;;;;;6.57;87.28;98679.88;7344619;19;20010;-71
2023/04/02 02:38:30;;;;;;;26.58;15.15;;;;;;;6.61;87.08;98677.88;7344147;19;20018;-71
2023/04/02 02:41:11;;;;;;;;;;;;;;;6.62;86.75;98678.72;7347035;19;20030;-70
2023/04/02 02:43:40;;;;;;;27.27;13.82;;;;;;;6.56;86.63;98677.31;7339909;19;20003;-71
2023/04/02 02:46:10;;;;;;;30.92;14.07;;;;;;;6.46;86.61;98671.00;7344600;19;20011;-72
2023/04/02 02:48:40;;;;;;;24.63;13.55;;;;;;;6.62;86.73;98682.22;7347637;19;20014;-70
2023/04/02 02:51:16;;;;;;;24.90;13.30;;;;;;;6.66;86.16;98677.56;7344704;19;20039;-73
2023/04/02 02:53:48;;;;;;;24.75;12.57;;;;;;;6.59;86.08;98681.56;7346522;19;20011;-72
2023/04/02 02:56:13;;;;;;;33.92;17.45;;;;;;;6.48;86.13;98677.88;7347148;19;20015;-71
2023/04/02 02:58:42;;;;;;;23.08;12.57;;;;;;;6.50;85.92;98683.91;7348310;19;20010;-74
2023/04/02 03:01:18;;;;;;;30.45;15.05;;;;;;;6.47;86.18;98693.88;7346330;19;20360;-73
2023/04/02 03:03:46;;;;;;;28.27;13.45;;;;;;;6.52;86.20;98686.47;7341353;19;20041;-69
2023/04/02 03:06:15;;;;;;;27.88;13.80;;;;;;;6.49;85.97;98682.22;7344121;19;20031;-69
2023/04/02 03:09:24;;;;;;;27.38;14.77;;;;;;;6.46;86.01;98684.22;7346679;19;20014;-70
2023/04/02 03:12:00;;;;;;;22.55;12.60;;;;;;;6.56;85.92;98695.88;7345138;19;20440;-70
2023/04/02 03:14:32;;;;;;;23.23;13.18;;;;;;;6.66;85.75;98702.19;7345017;19;20011;-68
2023/04/02 03:17:09;;;;;;;30.77;13.35;;;;;;;6.60;85.62;98697.34;7344593;19;20062;-71
2023/04/02 03:19:44;;;;;;;21.15;13.25;;;;;;;6.64;85.62;98704.16;7342600;19;20017;-71
2023/04/02 03:22:25;;;;;;;26.13;14.48;;;;;;;6.76;85.45;98705.94;7340643;19;20025;-67
2023/04/02 03:24:59;;;;;;;25.63;14.27;;;;;;;6.75;85.07;98698.09;7343289;19;20011;-70
2023/04/02 03:27:37;;;;;;;25.30;14.02;;;;;;;6.74;84.71;98705.19;7344559;19;20100;-72
2023/04/02 03:30:17;;;;;;;24.45;14.30;;;;;;;6.76;85.02;98702.44;7340520;19;20019;-70
2023/04/02 03:32:45;;;;;;;27.58;13.15;;;;;;;6.73;84.84;98705.28;7344253;19;20448;-72
2023/04/02 03:35:29;;;;;;;28.30;14.82;;;;;;;6.83;84.55;98704.53;7340321;19;20038;-70
2023/04/02 03:38:01;;;;;;;30.65;14.02;;;;;;;6.79;84.61;98710.13;7340185;19;20086;-71
2023/04/02 03:40:33;;;;;;;25.80;13.75;;;;;;;6.89;84.18;98697.94;7340500;19;20022;-70
2023/04/02 03:43:26;;;;;;;26.17;12.50;;;;;;;6.91;83.89;98702.16;7342262;19;20007;-72
2023/04/02 03:46:33;;;;;;;27.08;14.98;;;;;;;6.87;84.10;98719.25;7349912;19;20620;-71
2023/04/02 03:49:22;;;;;;;24.90;14.60;;;;;;;6.78;84.12;98708.44;7344719;19;20026;-70
2023/04/02 03:52:17;;;;;;;23.25;11.82;;;;;;;6.93;83.80;98708.22;7345237;19;20026;-69
2023/04/02 03:54:43;;;;;;;23.90;12.65;;;;;;;6.91;83.30;98701.31;7348972;19;20014;-71
2023/04/02 03:57:50;;;;;;;23.88;13.13;;;;;;;7.00;83.06;98711.25;7347937;19;20006;-70
2023/04/02 04:00:23;;;;;;;22.88;12.02;;;;;;;6.95;83.04;98715.19;7345951;19;20021;-72
2023/04/02 04:02:57;;;;;;;20.92;11.93;;;;;;;6.85;82.99;98709.72;7345842;19;20019;-72
2023/04/02 04:05:34;;;;;;;26.73;13.20;;;;;;;6.92;82.89;98703.84;7351945;19;20022;-71
2023/04/02 04:08:15;;;;;;;25.35;12.40;;;;;;;6.97;82.71;98715.94;7345167;19;20247;-70
2023/04/02 04:10:41;;;;;;;22.60;10.88;;;;;;;6.90;82.76;98699.63;7339228;19;20026;-72
2023/04/02 04:13:13;;;;;;;23.30;11.63;;;;;;;6.91;82.63;98699.50;7348225;19;20006;-72
2023/04/02 04:15:50;;;;;;;25.20;12.57;;;;;;;6.99;82.53;98700.78;7353702;19;20050;-72
2023/04/02 04:18:33;;;;;;;19.08;11.05;;;;;;;6.97;82.27;98721.25;7349551;19;20027;-72
2023/04/02 04:21:14;;;;;;;21.08;11.13;;;;;;;7.00;82.17;98723.69;7357278;19;20014;-69
2023/04/02 04:23:40;;;;;;;22.70;9.70;;;;;;;7.06;82.04;98724.06;7348457;19;20690;-71
2023/04/02 04:26:10;;;;;;;22.38;11.60;;;;;;;7.01;81.71;98726.19;7356924;19;20035;-72
2023/04/02 04:28:41;;;;;;;21.45;11.80;;;;;;;7.00;81.56;98729.81;7354299;19;20014;-70
2023/04/02 04:31:21;;;;;;;20.92;10.88;;;;;;;7.04;81.44;98725.97;7354738;19;20413;-71
2023/04/02 04:34:01;;;;;;;19.65;11.23;;;;;;;6.96;81.26;98732.78;7354736;19;20015;-71
2023/04/02 04:36:32;;;;;;;18.52;11.02;;;;;;;7.05;81.38;98742.72;7352582;19;20010;-70
2023/04/02 04:39:16;;;;;;;21.50;11.30;;;;;;;7.11;81.31;98735.19;7353144;19;20382;-69
2023/04/02 04:41:46;;;;;;;22.10;10.95;;;;;;;7.26;80.74;98717.34;7346281;19;20022;-68
2023/04/02 04:44:23;;;;;;;20.45;11.55;;;;;;;7.11;80.59;98731.72;7348937;19;20019;-71
2023/04/02 04:46:59;;;;;;;17.30;10.48;;;;;;;7.10;80.72;98737.97;7345167;19;20025;-70
2023/04/02 04:49:39;;;;;;;18.55;10.90;;;;;;;7.16;80.65;98737.50;7346985;19;20010;-72
2023/04/02 04:52:27;;;;;;;13.60;8.60;;;;;;;7.29;80.50;98747.13;7349359;19;20480;-70
2023/04/02 04:54:52;;;;;;;20.88;11.90;;;;;;;7.22;79.65;98745.03;7341817;19;20089;-71
2023/04/02 04:57:31;;;;;;;18.80;10.80;;;;;;;7.22;79.78;98743.19;7341764;19;20022;-70
2023/04/02 05:00:08;;;;;;;23.60;11.93;;;;;;;7.22;79.62;98743.19;7340533;19;20010;-70
2023/04/02 05:02:43;;;;;;;18.05;10.85;;;;;;;7.20;79.77;98750.44;7339910;19;20086;-71
2023/04/02 05:05:23;;;;;;;18.60;9.93;;;;;;;7.47;78.84;98734.31;7340776;19;20018;-68
2023/04/02 05:07:56;;;;;;;18.30;10.65;;;;;;;7.18;79.03;98738.25;7344327;19;20026;-70
2023/04/02 05:10:29;;;;;;;17.25;10.32;;;;;;;7.21;78.92;98740.69;7341035;19;20054;-71
2023/04/02 05:13:01;;;;;;;20.88;10.38;;;;;;;7.18;79.40;98746.19;7340909;19;20015;-71
2023/04/02 05:15:33;;;;;;;20.77;11.15;;;;;;;7.17;79.44;98744.50;7340214;19;20022;-71
2023/04/02 05:18:10;;;;;;;20.63;10.27;;;;;;;7.23;79.43;98754.66;7341225;19;20370;-71
2023/04/02 05:21:06;;;;;;;22.73;10.32;;;;;;;7.25;79.59;98753.59;7342249;19;20035;-71
2023/04/02 05:23:48;;;;;;;15.75;9.07;;;;;;;7.31;79.31;98754.13;7340951;19;20027;-71
2023/04/02 05:26:20;;;;;;;20.85;11.30;;;;;;;7.27;79.01;98759.63;7345794;19;20026;-70
2023/04/02 05:28:57;;;;;;;22.88;12.00;;;;;;;7.23;78.78;98767.91;7344929;19;20025;-70
2023/04/02 05:31:35;;;;;;;16.67;9.00;;;;;;;7.33;78.85;98766.31;7339628;19;20094;-70
2023/04/02 05:34:02;;;;;;;21.17;11.75;;;;;;;7.12;78.64;98770.47;7339710;19;20019;-72
2023/04/02 05:36:31;;;;;;;18.98;10.23;;;;;;;7.07;78.58;98756.72;7340056;19;20096;-71
2023/04/02 05:38:59;;;;;;;21.92;11.27;;;;;;;7.04;78.98;98762.25;7338879;19;20346;-73
2023/04/02 05:41:44;;;;;;;19.40;10.02;;;;;;;7.33;79.08;98758.38;7338019;19;20021;-70
2023/04/02 05:44:24;;;;;;;18.35;10.70;;;;;;;7.23;78.92;98773.22;7337131;19;20370;-74
2023/04/02 05:46:59;;;;;;;19.80;11.50;;;;;;;7.35;78.83;98771.47;7343312;19;20017;-70
2023/04/02 05:50:09;;;;;;;21.85;12.40;;;;;;;7.43;78.23;98759.38;7342915;19;20021;-71
2023/04/02 05:52:55;;;;;;;20.13;11.60;;;;;;;7.34;77.96;98765.34;7335774;19;20028;-71
2023/04/02 05:55:33;;;;;;;20.08;12.02;;;;;;;7.38;77.97;98764.16;7336602;19;20052;-71
2023/04/02 06:01:19;;;;;;;23.58;11.50;;;;;;;7.38;78.43;98772.13;7337167;19;20030;-72
2023/04/02 06:03:52;;;;;;;19.25;10.90;;;;;;;7.37;78.23;98770.41;7338933;19;20014;-71
2023/04/02 06:06:41;;;;;;;25.25;12.55;;;;;;;7.42;78.32;98768.31;7336569;19;20452;-72
2023/04/02 06:09:45;;;;;;;23.13;13.45;;;;;;;7.46;77.85;98769.75;7338708;19;20023;-72
2023/04/02 06:12:25;;;;;;;30.00;13.68;;;;;;;7.70;77.63;98771.56;7341276;19;20030;-72
2023/04/02 06:14:53;;;;;;;20.52;12.57;;;;;;;7.76;77.24;98768.47;7336101;19;20010;-75
2023/04/02 06:17:24;;;;;;;19.02;12.20;;;;;;;7.93;76.99;98765.41;7340037;19;20115;-73
2023/04/02 06:19:53;;;;;;;21.58;12.07;;;;;;;8.00;76.40;98770.16;7344017;19;20086;-73
2023/04/02 06:22:21;;;;;;;28.70;13.95;;;;;;;7.96;75.84;98770.50;7345243;19;20025;-73
2023/04/02 06:24:59;;;;;;;23.52;12.18;;;;;;;7.90;76.18;98766.47;7343788;19;20021;-71
2023/04/02 06:27:26;;;;;;;23.00;13.43;;;;;;;7.82;75.90;98765.38;7346083;19;20454;-73
2023/04/02 06:29:55;;;;;;;20.67;11.07;;;;;;;8.07;75.79;98775.00;7348661;19;20049;-72
2023/04/02 06:32:26;;;;;;;22.13;13.20;;;;;;;7.76;75.65;98761.38;7345701;19;20014;-72
2023/04/02 06:34:53;;;;;;;24.10;13.13;;;;;;;7.92;75.59;98759.25;7345812;19;20354;-71
2023/04/02 06:37:23;;;;;;;18.73;11.93;;;;;;;8.09;75.20;98752.69;7347473;19;20054;-72
2023/04/02 06:39:57;;;;;;;20.58;12.80;;;;;;;8.23;74.62;98760.47;7345340;19;20046;-72
2023/04/02 06:42:31;;;;;;;19.88;11.75;;;;;;;8.45;74.38;98762.38;7341178;19;20018;-72
2023/04/02 06:45:25;;;;;;;22.73;11.07;;;;;;;8.72;74.26;98765.53;7344886;19;20464;-70
2023/04/02 06:48:16;;;;;;;19.67;10.68;;;;;;;8.88;72.92;98761.69;7343487;19;20033;-70
2023/04/02 06:50:49;;;;;;;18.52;10.13;;;;;;;8.86;72.22;98761.78;7341470;19;20430;-73
2023/04/02 06:53:30;;;;;;;16.65;10.60;;;;;;;8.81;72.26;98768.41;7342274;19;20483;-68
2023/04/02 06:56:02;;;;;;;15.52;9.38;;;;;;;8.87;71.30;98766.16;7341180;19;20373;-71
2023/04/02 06:58:30;;;;;;;22.00;12.07;;;;;;;8.59;71.46;98772.75;7343970;19;20399;-70
2023/04/02 07:00:56;;;;;;;23.42;13.05;;;;;;;8.41;71.40;98760.06;7341829;19;20014;-72
2023/04/02 07:03:33;;;;;;;18.05;10.65;;;;;;;8.34;71.42;98773.81;7341641;19;20023;-69
2023/04/02 07:06:16;;;;;;;16.50;10.48;;;;;;;8.52;72.08;98773.34;7344449;19;20018;-71
2023/04/02 07:08:43;;;;;;;15.52;9.30;;;;;;;8.41;71.89;98770.66;7345018;19;20025;-71
2023/04/02 07:11:15;;;;;;;16.63;10.27;;;;;;;8.38;71.85;98779.72;7343397;19;20023;-72
2023/04/02 07:13:42;;;;;;;19.15;12.32;;;;;;;8.25;71.84;98781.56;7346280;19;20493;-71
2023/04/02 07:16:19;;;;;;;16.98;9.63;;;;;;;8.42;71.47;98785.66;7345296;19;20015;-70
2023/04/02 07:18:47;;;;;;;14.05;9.45;;;;;;;8.41;71.69;98783.94;7343570;19;20033;-71
2023/04/02 07:21:13;;;;;;;20.30;12.38;;;;;;;8.29;71.12;98785.69;7342592;19;20473;-72
2023/04/02 07:23:40;;;;;;;16.73;9.20;;;;;;;8.42;71.23;98791.81;7345029;19;20047;-72
2023/04/02 07:26:16;;;;;;;22.27;11.75;;;;;;;8.40;71.07;98795.53;7346890;19;20010;-72
2023/04/02 07:28:44;;;;;;;19.17;12.13;;;;;;;8.18;71.56;98797.13;7345424;19;20017;-72
2023/04/02 07:31:27;;;;;;;17.27;10.38;;;;;;;8.05;71.88;98793.69;7345859;19;20018;-70
2023/04/02 07:33:57;;;;;;;19.95;10.20;;;;;;;8.03;71.94;98793.81;7348083;19;20022;-71
2023/04/02 07:36:25;;;;;;;17.95;11.05;;;;;;;7.95;72.05;98790.03;7344471;19;20014;-70
2023/04/02 07:38:51;;;;;;;16.85;11.70;;;;;;;8.02;72.02;98801.88;7346063;19;20013;-71
2023/04/02 07:41:18;;;;;;;18.00;10.50;;;;;;;8.30;71.55;98798.00;7346211;19;20105;-71
2023/04/02 07:43:44;;;;;;;16.50;10.48;;;;;;;8.48;71.47;98791.31;7345544;19;20006;-73
2023/04/02 07:46:13;;;;;;;12.98;8.00;;;;;;;8.75;70.77;98801.66;7345973;19;20104;-72
2023/04/02 07:48:43;;;;;;;18.38;10.80;;;;;;;8.86;70.33;98790.19;7348336;19;20042;-70
2023/04/02 07:51:19;;;;;;;20.98;9.90;;;;;;;8.60;70.42;98808.97;7352882;19;20022;-74
2023/04/02 07:53:48;;;;;;;19.02;11.35;;;;;;;8.49;70.40;98798.34;7354461;19;20085;-72
2023/04/02 07:56:18;;;;;;;21.98;13.30;;;;;;;8.07;71.57;98807.69;7348711;19;20054;-71
2023/04/02 07:58:46;;;;;;;18.27;11.82;;;;;;;8.29;71.19;98813.09;7346861;19;20022;-72
2023/04/02 08:01:22;;;;;;;22.00;12.30;;;;;;;8.17;72.04;98805.19;7346888;19;20021;-74
2023/04/02 08:03:50;;;;;;;20.67;11.80;;;;;;;8.06;72.27;98800.69;7348509;19;20086;-71
2023/04/02 08:06:18;;;;;;;17.48;12.07;;;;;;;8.22;72.32;98806.56;7349393;19;20037;-71
2023/04/02 08:08:44;;;;;;;18.77;12.25;;;;;;;8.23;71.68;98800.28;7348064;19;20018;-72
2023/04/02 08:11:12;;;;;;;20.77;12.00;;;;;;;8.29;71.79;98813.09;7347339;19;20018;-70
2023/04/02 08:13:40;;;;;;;21.40;13.27;;;;;;;8.13;72.10;98812.53;7347426;19;20015;-70
2023/04/02 08:16:11;;;;;;;20.00;12.63;;;;;;;8.13;72.48;98812.53;7347421;19;20010;-73
2023/04/02 08:18:40;;;;;;;22.48;12.88;;;;;;;8.32;72.10;98820.03;7343570;19;20496;-71
2023/04/02 08:21:09;;;;;;;18.83;11.48;;;;;;;8.33;71.93;98819.91;7343223;19;20017;-72
2023/04/02 08:23:39;;;;;;;21.15;11.98;;;;;;;8.27;72.19;98815.00;7343652;19;20424;-71
2023/04/02 08:26:08;;;;;;;17.95;10.95;;;;;;;8.36;72.13;98806.38;7350475;19;20084;-69
2023/04/02 08:28:34;;;;;;;21.20;11.40;;;;;;;8.42;72.18;98820.19;7347727;19;20035;-72
2023/04/02 08:30:58;;;;;;;17.25;11.57;;;;;;;8.39;72.20;98813.28;7349208;19;20023;-71
2023/04/02 08:33:24;;;;;;;18.45;11.90;;;;;;;8.29;72.21;98818.41;7346497;19;20034;-72
2023/04/02 08:35:50;;;;;;;19.33;11.05;;;;;;;8.30;72.32;98814.78;7348871;19;20070;-72
2023/04/02 08:38:20;;;;;;;17.63;10.27;;;;;;;8.45;72.02;98817.28;7344679;19;20108;-73
2023/04/02 08:40:53;;;;;;;21.20;11.82;;;;;;;8.42;72.42;98836.09;7344779;19;20018;-71
2023/04/02 08:43:51;;;;;;;29.40;14.38;;;;;;;8.34;72.30;98811.00;7344147;19;20006;-72
2023/04/02 08:46:36;;;;;;;15.85;8.23;;;;;;;8.69;72.00;98820.75;7345869;19;20034;-71
2023/04/02 08:49:13;;;;;;;20.17;12.60;;;;;;;8.45;71.78;98811.97;7344391;19;20062;-73
2023/04/02 08:51:40;;;;;;;18.73;11.55;;;;;;;8.42;71.80;98813.06;7346677;19;20014;-72
2023/04/02 08:54:12;;;;;;;18.92;10.95;;;;;;;8.40;71.78;98809.66;7341873;19;20018;-70
2023/04/02 08:56:45;;;;;;;20.17;12.20;;;;;;;8.35;72.06;98804.69;7341969;19;20019;-71
2023/04/02 08:59:24;;;;;;;20.42;13.65;;;;;;;8.35;72.66;98801.22;7345940;19;20351;-73
2023/04/02 09:02:20;;;;;;;16.60;10.25;;;;;;;8.52;72.52;98811.38;7347077;19;20022;-73
2023/04/02 09:04:47;;;;;;;;;;;;;;;8.83;71.02;98801.91;7349714;19;20477;-72
2023/04/02 09:07:15;;;;;;;24.05;12.32;;;;;;;8.45;71.96;98818.16;7348783;19;20347;-72
2023/04/02 09:09:40;;;;;;;21.77;12.32;;;;;;;8.42;71.94;98804.25;7349227;19;20010;-72
2023/04/02 09:12:16;;;;;;;23.98;12.13;;;;;;;8.48;72.44;98822.34;7347993;19;20041;-71
2023/04/02 09:14:57;;;;;;;26.08;12.00;;;;;;;8.57;72.54;98811.03;7344875;19;20014;-71
2023/04/02 09:17:25;;;;;;;26.52;15.25;;;;;;;8.24;72.99;98825.03;7349204;19;20014;-74
2023/04/02 09:20:15;;;;;;;22.83;16.33;;;;;;;8.30;73.42;98825.41;7341455;19;20037;-72
2023/04/02 09:22:41;;;;;;;19.10;11.00;;;;;;;8.48;72.92;98830.31;7340967;19;20010;-72
2023/04/02 09:25:13;;;;;;;23.55;12.43;;;;;;;8.53;73.07;98810.44;7341799;19;20019;-75
2023/04/02 09:27:41;;;;;;;19.00;12.38;;;;;;;8.67;72.78;98822.66;7341439;19;20077;-72
2023/04/02 09:30:13;;;;;;;26.25;15.43;;;;;;;8.58;72.19;98818.03;7340530;19;20015;-72
2023/04/02 09:33:06;;;;;;;18.85;11.38;;;;;;;8.69;72.81;98821.56;7341663;19;20015;-72
2023/04/02 09:35:34;;;;;;;19.70;13.20;;;;;;;8.76;72.63;98816.63;7343432;19;20102;-73
2023/04/02 09:38:29;;;;;;;23.13;12.60;;;;;;;8.88;72.17;98821.00;7354955;19;20027;-71
2023/04/02 09:40:57;;;;;;;23.58;13.23;;;;;;;8.91;72.27;98826.09;7351122;19;20035;-74
2023/04/02 09:43:30;;;;;;;21.95;12.88;;;;;;;9.19;72.02;98818.59;7343062;19;20011;-76
2023/04/02 09:46:01;;;;;;;18.70;12.38;;;;;;;9.29;71.54;98828.38;7348946;19;20014;-72
2023/04/02 09:48:26;;;;;;;24.08;11.35;;;;;;;9.35;70.80;98843.03;7342850;19;20338;-70
2023/04/02 09:51:24;;;;;;;23.80;14.13;;;;;;;9.07;71.72;98821.25;7341083;19;20061;-73
2023/04/02 09:54:15;;;;;;;18.50;10.77;;;;;;;8.94;72.10;98820.50;7346711;19;20046;-73
2023/04/02 09:56:59;;;;;;;22.85;13.07;;;;;;;9.01;72.11;98826.22;7348683;19;20082;-72
2023/04/02 09:59:27;;;;;;;17.10;10.93;;;;;;;9.06;72.20;98821.38;7352384;19;20015;-74
2023/04/02 10:01:54;;;;;;;17.23;10.63;;;;;;;9.20;71.67;98825.59;7348783;19;20011;-71
2023/04/02 10:04:42;;;;;;;20.15;10.85;;;;;;;9.50;70.83;98822.31;7344822;19;20014;-72
2023/04/02 10:07:49;;;;;;;18.65;10.45;;;;;;;9.25;70.79;98828.75;7347042;19;20018;-71
2023/04/02 10:10:20;;;;;;;17.42;11.70;;;;;;;9.10;71.22;98823.69;7344478;19;20022;-72
2023/04/02 10:12:52;;;;;;;18.20;9.63;;;;;;;9.02;71.64;98831.41;7346543;19;20374;-71
2023/04/02 10:15:24;;;;;;;;;;;;;;;9.09;71.65;98823.78;7345634;19;20090;-73
2023/04/02 10:18:01;;;;;;;16.23;10.75;;;;;;;8.98;72.04;98829.09;7343759;19;19918;-71
2023/04/02 10:20:29;;;;;;;31.48;12.25;;;;;;;9.30;71.81;98830.06;7347979;19;20014;-74
2023/04/02 10:22:55;;;;;;;20.63;12.85;;;;;;;9.28;71.25;98821.38;7344115;19;20015;-72
2023/04/02 10:25:23;;;;;;;17.10;11.52;;;;;;;9.53;70.68;98836.22;7344882;19;20083;-74
2023/04/02 10:28:20;;;;;;;19.27;11.43;;;;;;;9.76;70.19;98827.25;7346180;19;20011;-71
2023/04/02 10:31:11;;;;;;;18.95;11.13;;;;;;;10.09;69.20;98830.78;7345944;19;20019;-72
2023/04/02 10:33:38;;;;;;;18.92;11.25;;;;;;;10.07;68.57;98809.59;7346581;19;20413;-73
2023/04/02 10:36:26;;;;;;;20.27;11.40;;;;;;;10.18;68.58;98814.91;7345859;19;20007;-72
2023/04/02 10:38:55;;;;;;;19.25;11.02;;;;;;;10.33;68.45;98810.13;7346104;19;20018;-70
2023/04/02 10:41:35;;;;;;;21.48;13.30;;;;;;;10.34;67.42;98817.16;7345362;19;20026;-72
2023/04/02 10:44:20;;;;;;;17.33;9.38;;;;;;;10.75;67.01;98805.66;7346423;19;20023;-71
2023/04/02 10:47:14;;;;;;;17.70;9.30;;;;;;;10.96;66.12;98800.28;7345419;19;20019;-70
2023/04/02 10:49:47;;;;;;;21.50;10.75;;;;;;;10.93;65.49;98795.25;7348149;19;20010;-71
2023/04/02 10:52:25;;;;;;;19.38;10.13;;;;;;;11.09;65.51;98806.25;7346470;19;20500;-72
2023/04/02 10:55:15;;;;;;;23.15;14.57;;;;;;;11.31;64.65;98802.56;7346068;19;20033;-72
2023/04/02 10:57:46;;;;;;;13.88;8.43;;;;;;;11.14;64.18;98795.19;7345374;19;20679;-73
2023/04/02 11:00:19;;;;;;;17.63;9.88;;;;;;;11.31;64.19;98805.22;7348080;19;20111;-70
2023/04/02 11:03:01;;;;;;;14.75;9.13;;;;;;;11.35;64.47;98812.00;7344238;19;20018;-73
2023/04/02 11:05:45;;;;;;;23.08;11.07;;;;;;;11.41;64.35;98806.09;7343832;19;20014;-72
2023/04/02 11:08:19;;;;;;;18.27;10.10;;;;;;;11.43;63.81;98804.16;7344230;19;20014;-70
2023/04/02 11:11:00;;;;;;;15.90;9.75;;;;;;;11.45;63.87;98796.00;7345841;19;20030;-73
2023/04/02 11:13:33;;;;;;;18.90;11.35;;;;;;;11.17;64.09;98790.41;7343268;19;20023;-72
2023/04/02 11:15:59;;;;;;;24.25;10.82;;;;;;;11.38;63.95;98801.06;7344254;19;20021;-70
2023/04/02 11:18:37;;;;;;;15.07;10.25;;;;;;;11.55;63.52;98803.06;7347737;19;20018;-71
2023/04/02 11:21:38;;;;;;;14.10;8.90;;;;;;;11.72;62.80;98814.94;7343481;19;20018;-75
2023/04/02 11:24:32;;;;;;;10.45;7.32;;;;;;;11.75;62.87;98820.00;7343006;19;20086;-74
2023/04/02 11:27:10;;;;;;;19.23;13.15;;;;;;;10.84;64.03;98807.53;7347372;19;20015;-73
2023/04/02 11:29:45;;;;;;;20.15;11.10;;;;;;;10.74;64.66;98811.09;7347466;19;20018;-73
2023/04/02 11:32:19;;;;;;;14.55;8.98;;;;;;;10.87;64.67;98807.25;7347173;19;20488;-73
2023/04/02 11:34:48;;;;;;;17.63;7.38;;;;;;;11.05;64.56;98804.84;7347603;19;20014;-72
2023/04/02 11:37:43;;;;;;;11.00;8.13;;;;;;;11.27;64.12;98804.66;7345274;19;20517;-73
2023/04/02 11:40:10;;;;;;;18.05;10.32;;;;;;;11.02;64.30;98806.94;7345100;19;20022;-73
2023/04/02 11:42:39;;;;;;;15.02;9.82;;;;;;;10.95;64.48;98803.13;7341198;19;20026;-72
2023/04/02 11:45:22;;;;;;;17.98;9.98;;;;;;;11.02;64.97;98812.25;7343323;19;20015;-73
2023/04/02 11:48:16;;;;;;;14.93;6.65;;;;;;;11.29;64.19;98816.03;7346909;19;20095;-72
2023/04/02 11:50:44;;;;;;;23.27;11.60;;;;;;;10.79;64.88;98806.25;7342779;19;20010;-69
2023/04/02 11:53:10;;;;;;;19.23;11.30;;;;;;;10.64;65.04;98805.72;7344213;19;20026;-67
2023/04/02 11:55:57;;;;;;;21.10;10.65;;;;;;;10.85;65.24;98813.69;7344950;19;20026;-74
2023/04/02 11:58:35;;;;;;;16.48;10.77;;;;;;;10.96;64.95;98810.97;7339150;19;20043;-67
2023/04/02 12:01:15;;;;;;;22.83;11.40;;;;;;;10.86;65.07;98813.56;7339047;19;20018;-68
2023/04/02 12:04:01;;;;;;;12.48;7.78;;;;;;;11.22;65.04;98814.03;7337756;19;20035;-68
2023/04/02 12:06:53;;;;;;;19.92;9.80;;;;;;;11.21;64.33;98810.53;7338956;19;20054;-69
2023/04/02 12:09:27;;;;;;;16.05;9.60;;;;;;;11.12;64.47;98805.16;7341690;19;20034;-68